createdAt,value
2018-12-03T00:00:05.386Z,10.4
2018-12-03T00:05:13.266Z,10.4
2018-12-03T00:10:05.637Z,10.5
2018-12-03T00:15:07.465Z,10.5
2018-12-03T00:20:18.096Z,10.6
2018-12-03T00:25:05.757Z,10.6
2018-12-03T00:30:10.662Z,10.6
2018-12-03T00:35:17.619Z,10.6
2018-12-03T00:40:20.109Z,10.6
2018-12-03T00:45:07.831Z,10.6
2018-12-03T00:50:21.009Z,10.7
2018-12-03T00:55:10.161Z,10.7
2018-12-03T01:00:05.080Z,10.8
2018-12-03T01:05:25.658Z,10.8
2018-12-03T01:15:15.437Z,10.9
2018-12-03T01:20:05.414Z,11
2018-12-03T01:25:05.833Z,11
2018-12-03T01:30:33.543Z,11
2018-12-03T01:35:12.995Z,11
2018-12-03T01:40:10.509Z,11
2018-12-03T01:50:04.997Z,11.1
2018-12-03T01:55:20.532Z,11.1
2018-12-03T02:00:25.649Z,11.1
2018-12-03T02:05:05.494Z,11
2018-12-03T02:10:03.325Z,11
2018-12-03T02:15:02.636Z,11
2018-12-03T02:20:05.522Z,11
2018-12-03T02:25:15.069Z,10.9
2018-12-03T02:30:05.002Z,10.9
2018-12-03T02:35:02.823Z,10.9
2018-12-03T02:50:13.369Z,10.9
2018-12-03T02:55:07.614Z,10.9
2018-12-03T03:00:08.035Z,10.9
2018-12-03T03:05:10.027Z,10.8
2018-12-03T03:10:20.570Z,10.8
2018-12-03T03:15:15.898Z,10.8
2018-12-03T03:20:16.020Z,10.9
2018-12-03T03:25:07.830Z,10.9
2018-12-03T03:30:26.057Z,11
2018-12-03T03:35:05.077Z,11
2018-12-03T03:40:35.818Z,11
2018-12-03T03:45:03.191Z,11
2018-12-03T03:50:05.092Z,11
2018-12-03T03:55:05.572Z,11
2018-12-03T04:00:03.134Z,11
2018-12-03T04:05:10.067Z,11
2018-12-03T04:10:10.516Z,11.1
2018-12-03T04:15:10.925Z,11.1
2018-12-03T04:20:15.984Z,11.1
2018-12-03T04:25:17.849Z,11.1
2018-12-03T04:30:18.500Z,11.2
2018-12-03T04:35:07.719Z,11.2
2018-12-03T04:40:30.495Z,11.2
2018-12-03T04:45:07.896Z,11.3
2018-12-03T04:50:03.320Z,11.3
2018-12-03T04:55:38.063Z,11.3
2018-12-03T05:00:04.981Z,11.3
2018-12-03T05:05:10.494Z,11.3
2018-12-03T05:10:04.928Z,11.4
2018-12-03T05:15:28.070Z,11.4
2018-12-03T05:20:07.556Z,11.4
2018-12-03T05:25:02.934Z,11.4
2018-12-03T05:30:10.915Z,11.4
2018-12-03T05:35:10.316Z,11.4
2018-12-03T05:40:38.545Z,11.4
2018-12-03T05:45:05.367Z,11.4
2018-12-03T05:55:08.110Z,11.3
2018-12-03T06:00:07.541Z,11.3
2018-12-03T06:05:02.941Z,11.3
2018-12-03T06:10:02.860Z,11.3
2018-12-03T06:15:15.803Z,11.2
2018-12-03T06:20:23.466Z,11.2
2018-12-03T06:25:05.200Z,11.2
2018-12-03T06:30:07.778Z,11.2
2018-12-03T06:35:10.694Z,11.2
2018-12-03T06:45:10.424Z,11.2
2018-12-03T06:50:07.834Z,11.2
2018-12-03T06:55:05.666Z,11.2
2018-12-03T07:00:05.583Z,11.2
2018-12-03T07:05:17.594Z,11.2
2018-12-03T07:10:05.040Z,11.2
2018-12-03T07:15:35.770Z,11.2
2018-12-03T07:20:18.338Z,11.2
2018-12-03T07:25:07.697Z,11.3
2018-12-03T07:30:10.669Z,11.3
2018-12-03T07:35:07.487Z,11.3
2018-12-03T07:45:02.590Z,11.4
2018-12-03T07:50:13.091Z,11.4
2018-12-03T07:55:04.970Z,11.4
2018-12-03T08:00:30.259Z,11.4
2018-12-03T08:05:07.677Z,11.4
2018-12-03T08:10:05.064Z,11.5
2018-12-03T08:15:35.825Z,11.5
2018-12-03T08:25:04.984Z,11.5
2018-12-03T08:30:12.521Z,11.5
2018-12-03T08:35:02.818Z,11.5
2018-12-03T08:40:15.386Z,11.6
2018-12-03T08:45:03.249Z,11.6
2018-12-03T08:50:15.286Z,11.7
2018-12-03T08:55:13.206Z,11.7
2018-12-03T09:00:18.587Z,11.8
2018-12-03T09:05:33.313Z,11.8
2018-12-03T09:10:05.640Z,11.9
2018-12-03T09:15:02.489Z,11.9
2018-12-03T09:20:05.439Z,11.9
2018-12-03T09:25:03.337Z,11.9
2018-12-03T09:30:05.184Z,12
2018-12-03T09:35:08.146Z,12
2018-12-03T09:45:08.248Z,12
2018-12-03T09:50:17.806Z,12
2018-12-03T09:55:10.756Z,12
2018-12-03T10:00:05.627Z,12
2018-12-03T10:05:22.807Z,12
2018-12-03T10:10:10.237Z,12
2018-12-03T10:15:05.608Z,12.1
2018-12-03T10:20:28.393Z,12.1
2018-12-03T10:25:02.707Z,12.1
2018-12-03T10:30:15.730Z,12.1
2018-12-03T10:35:25.198Z,12.1
2018-12-03T10:40:04.959Z,12.2
2018-12-03T10:45:05.351Z,12.2
2018-12-03T10:50:33.140Z,12.2
2018-12-03T11:00:05.166Z,12.2
2018-12-03T11:05:03.057Z,12.2
2018-12-03T11:10:05.520Z,12.3
2018-12-03T11:15:09.959Z,12.4
2018-12-03T11:20:12.573Z,12.5
2018-12-03T11:25:18.060Z,12.5
2018-12-03T11:30:07.545Z,12.5
2018-12-03T11:35:13.060Z,12.6
2018-12-03T11:45:05.649Z,12.8
2018-12-03T11:50:10.600Z,13
2018-12-03T11:55:17.651Z,13.1
2018-12-03T12:00:35.972Z,13.1
2018-12-03T12:05:05.890Z,13.1
2018-12-03T12:10:20.459Z,13.1
2018-12-03T12:15:05.702Z,13.2
2018-12-03T12:20:13.262Z,13.2
2018-12-03T12:25:30.507Z,13.3
2018-12-03T12:30:07.946Z,13.3
2018-12-03T12:35:03.282Z,13.3
2018-12-03T12:45:07.544Z,13
2018-12-03T12:50:05.548Z,12.9
2018-12-03T12:55:21.054Z,13.1
2018-12-03T13:05:35.534Z,13.4
2018-12-03T13:10:10.001Z,13.5
2018-12-03T13:15:05.316Z,13.4
2018-12-03T13:20:05.257Z,13.3
2018-12-03T13:25:03.147Z,13.3
2018-12-03T13:30:27.833Z,13.1
2018-12-03T13:35:18.418Z,13
2018-12-03T13:40:13.402Z,12.9
2018-12-03T13:45:02.701Z,12.9
2018-12-03T13:50:25.886Z,12.7
2018-12-03T13:55:03.240Z,12.7
2018-12-03T14:00:17.920Z,12.5
2018-12-03T14:05:03.121Z,12.5
2018-12-03T14:10:02.995Z,12.5
2018-12-03T14:15:12.470Z,12.3
2018-12-03T14:30:10.092Z,12.2
2018-12-03T14:35:05.375Z,12.2
2018-12-03T14:45:07.453Z,12
2018-12-03T14:50:38.180Z,12
2018-12-03T14:55:15.133Z,11.9
2018-12-03T15:00:05.063Z,11.9
2018-12-03T15:05:05.425Z,11.8
2018-12-03T15:10:28.565Z,11.7
2018-12-03T15:15:07.977Z,11.3
2018-12-03T15:20:15.109Z,11.6
2018-12-03T15:25:02.890Z,11.6
2018-12-03T15:30:16.036Z,11.5
2018-12-03T15:35:15.292Z,11.4
2018-12-03T15:45:02.388Z,11.3
2018-12-03T15:50:07.854Z,11.2
2018-12-03T15:55:20.917Z,11.2
2018-12-03T16:00:03.348Z,11.2
2018-12-03T16:05:05.283Z,11.3
2018-12-03T16:10:36.118Z,11.2
2018-12-03T16:15:10.041Z,11.2
2018-12-03T16:20:25.259Z,11.1
2018-12-03T16:25:05.128Z,11.1
2018-12-03T16:30:30.363Z,11.2
2018-12-03T16:35:05.301Z,11.2
2018-12-03T16:40:15.902Z,11.1
2018-12-03T16:45:10.333Z,11.2
2018-12-03T16:50:05.248Z,11.2
2018-12-03T16:55:08.204Z,11.2
2018-12-03T17:00:05.144Z,11.3
2018-12-03T17:05:02.961Z,11.3
2018-12-03T17:10:23.085Z,11.3
2018-12-03T17:15:28.565Z,11.2
2018-12-03T17:20:15.778Z,11.2
2018-12-03T17:25:04.906Z,11.1
2018-12-03T17:30:10.903Z,11.1
2018-12-03T17:35:12.814Z,11.1
2018-12-03T17:40:02.672Z,11.1
2018-12-03T17:45:10.639Z,11.1
2018-12-03T17:50:03.010Z,11.1
2018-12-03T17:55:17.563Z,10.9
2018-12-03T18:00:25.678Z,10.9
2018-12-03T18:05:13.183Z,10.8
2018-12-03T18:10:25.842Z,10.8
2018-12-03T18:15:05.738Z,10.7
2018-12-03T18:20:03.239Z,10.7
2018-12-03T18:25:12.854Z,10.6
2018-12-03T18:30:10.814Z,10.6
2018-12-03T18:35:15.250Z,10.5
2018-12-03T18:40:36.018Z,10.5
2018-12-03T18:45:21.051Z,10.4
2018-12-03T18:50:03.384Z,10.4
2018-12-03T18:55:05.354Z,10.4
2018-12-03T19:05:05.458Z,10.2
2018-12-03T19:10:05.879Z,10.2
2018-12-03T19:15:28.008Z,10.1
2018-12-03T19:20:27.746Z,10
2018-12-03T19:25:08.167Z,9.9
2018-12-03T19:30:10.293Z,9.8
2018-12-03T19:35:07.926Z,9.7
2018-12-03T19:40:28.215Z,9.6
2018-12-03T19:45:05.510Z,9.6
2018-12-03T19:50:30.844Z,9.4
2018-12-03T19:55:03.287Z,9.5
2018-12-03T20:00:30.684Z,9.3
2018-12-03T20:05:17.559Z,9.2
2018-12-03T20:10:05.508Z,9.2
2018-12-03T20:15:17.956Z,9.2
2018-12-03T20:20:05.568Z,9.3
2018-12-03T20:30:10.459Z,9.4
2018-12-03T20:35:05.748Z,9.4
2018-12-03T20:45:03.523Z,9.4
2018-12-03T20:50:18.183Z,9.5
2018-12-03T20:55:10.953Z,9.5
2018-12-03T21:00:21.089Z,9.5
2018-12-03T21:05:17.938Z,9.5
2018-12-03T21:10:05.308Z,9.5
2018-12-03T21:15:15.623Z,9.4
2018-12-03T21:20:30.865Z,9.3
2018-12-03T21:25:13.331Z,9.2
2018-12-03T21:30:22.953Z,9.2
2018-12-03T21:35:20.784Z,9.1
2018-12-03T21:40:10.217Z,9
2018-12-03T21:45:18.207Z,9
2018-12-03T21:50:20.252Z,9
2018-12-03T21:55:08.059Z,9.1
2018-12-03T22:00:32.775Z,9.1
2018-12-03T22:10:08.284Z,9.3
2018-12-03T22:15:22.850Z,9.4
2018-12-03T22:20:05.808Z,9.4
2018-12-03T22:25:15.296Z,9.4
2018-12-03T22:30:07.734Z,9.4
2018-12-03T22:40:35.449Z,9.5
2018-12-03T22:45:05.339Z,9.5
2018-12-03T22:50:38.108Z,9.5
2018-12-03T22:55:15.112Z,9.5
2018-12-03T23:00:07.597Z,9.5
2018-12-03T23:05:05.447Z,9.5
2018-12-03T23:10:10.886Z,9.6
2018-12-03T23:15:02.720Z,9.6
2018-12-03T23:20:08.315Z,9.7
2018-12-03T23:25:17.752Z,9.7
2018-12-03T23:35:27.655Z,9.8
2018-12-03T23:40:02.522Z,9.8
2018-12-03T23:45:05.447Z,9.9
2018-12-03T23:50:30.667Z,9.9
2018-12-03T23:55:08.074Z,10
